Terminal Aerodrome Forecast
Issued by NWS

Home | Current Version | Previous Version | Text Only | Print | Product List | Glossary On
Versions: 1 2 3 4 5 6 7 8 9 10 11 12 13
000
FTUS46 KSTO 161100
TAFRBL
TAF
KRBL 161126Z 1612/1712 18008KT P6SM SKC
     FM162100 16012G22KT P6SM SCT250
     FM170400 VRB04KT P6SM SCT250=

USA.gov is the U.S. government's official web portal to all federal, state and local government web resources and services.